Time;durP1;ratioP1;P1;durP2;ratioP2;P2;SDS_P1;SDS_P2;PMS_P1;PMS_P2;Temp;Humidity;BMP_temperature;BMP_pressure;BME280_temperature;BME280_humidity;BME280_pressure;Samples;Min_cycle;Max_cycle;Signal;HPM_P1;HPM_P2
2022/07/16 00:01:24;;;;;;;4.70;3.50;;;18.90;97.70;;;;;;5093330;28;20386;-71
2022/07/16 00:03:56;;;;;;;6.32;3.55;;;18.80;97.70;;;;;;5088616;28;20103;-70
2022/07/16 00:06:24;;;;;;;3.65;3.03;;;18.80;97.60;;;;;;5086529;28;20047;-70
2022/07/16 00:08:50;;;;;;;3.30;2.97;;;18.70;97.90;;;;;;5087114;28;20459;-70
2022/07/16 00:11:15;;;;;;;4.75;3.00;;;18.70;98.30;;;;;;5087255;28;20028;-70
2022/07/16 00:13:42;;;;;;;8.65;3.60;;;18.70;98.50;;;;;;5090947;28;20397;-71
2022/07/16 00:16:09;;;;;;;8.30;3.72;;;18.60;98.40;;;;;;5089255;28;20067;-71
2022/07/16 00:21:19;;;;;;;8.10;3.25;;;18.60;98.70;;;;;;5084850;28;20500;-71
2022/07/16 00:23:45;;;;;;;5.78;3.50;;;18.50;98.90;;;;;;5085956;28;20024;-71
2022/07/16 00:26:10;;;;;;;4.28;2.78;;;18.50;99.40;;;;;;5083534;28;20081;-70
2022/07/16 00:28:36;;;;;;;4.88;3.13;;;18.50;99.10;;;;;;5082004;28;20029;-70
2022/07/16 00:31:02;;;;;;;5.32;3.25;;;18.40;99.10;;;;;;5089392;28;20103;-71
2022/07/16 00:33:28;;;;;;;4.07;3.10;;;18.40;98.80;;;;;;5086297;28;20028;-69
2022/07/16 00:35:53;;;;;;;6.15;3.60;;;18.40;98.90;;;;;;5088226;28;20055;-71
2022/07/16 00:38:19;;;;;;;3.63;3.20;;;18.40;98.80;;;;;;5090456;28;20016;-71
2022/07/16 00:40:44;;;;;;;7.57;3.72;;;18.40;98.80;;;;;;5085206;28;20035;-71
2022/07/16 00:43:12;;;;;;;5.05;3.20;;;18.40;98.90;;;;;;5083754;28;20481;-71
2022/07/16 00:45:38;;;;;;;4.38;3.53;;;18.40;99.10;;;;;;5084423;28;20156;-70
2022/07/16 00:48:05;;;;;;;7.35;3.78;;;18.40;99.10;;;;;;5089872;27;20516;-70
2022/07/16 00:50:31;;;;;;;4.75;3.70;;;18.30;99.10;;;;;;5079599;28;20063;-70
2022/07/16 00:52:58;;;;;;;4.90;3.55;;;18.30;99.40;;;;;;5087451;28;20377;-71
2022/07/16 00:55:24;;;;;;;5.57;3.55;;;18.30;99.40;;;;;;5085887;28;20185;-71
2022/07/16 00:57:49;;;;;;;7.15;4.00;;;18.30;99.00;;;;;;5086718;28;20107;-70
2022/07/16 01:00:15;;;;;;;4.22;3.20;;;18.30;98.90;;;;;;5079043;28;20393;-71
2022/07/16 01:02:41;;;;;;;7.55;3.40;;;18.30;98.80;;;;;;5082758;28;20082;-71
2022/07/16 01:05:07;;;;;;;6.60;3.67;;;18.30;99.00;;;;;;5077766;28;20028;-71
2022/07/16 01:07:34;;;;;;;5.05;3.00;;;18.30;99.00;;;;;;5084586;28;20036;-69
2022/07/16 01:10:03;;;;;;;4.65;3.33;;;18.30;98.90;;;;;;5084239;28;20380;-71
2022/07/16 01:12:29;;;;;;;4.25;2.90;;;18.20;99.00;;;;;;5083860;28;20378;-71
2022/07/16 01:14:55;;;;;;;4.38;3.50;;;18.20;99.10;;;;;;5081023;28;20032;-71
2022/07/16 01:17:21;;;;;;;8.10;3.40;;;18.20;99.00;;;;;;5091021;28;20027;-70
2022/07/16 01:19:47;;;;;;;4.20;3.33;;;18.20;98.90;;;;;;5087948;28;20035;-70
2022/07/16 01:22:21;;;;;;;3.05;2.58;;;18.20;99.20;;;;;;5084297;28;20033;-70
2022/07/16 01:24:48;;;;;;;8.13;3.55;;;18.20;98.90;;;;;;5090152;28;20036;-71
2022/07/16 01:27:17;;;;;;;4.43;3.40;;;18.20;98.90;;;;;;5083556;28;20431;-71
2022/07/16 01:29:43;;;;;;;5.35;3.70;;;18.10;99.20;;;;;;5086133;28;20024;-70
2022/07/16 01:32:08;;;;;;;5.93;3.28;;;18.10;98.90;;;;;;5086968;28;20427;-71
2022/07/16 01:34:35;;;;;;;6.85;3.75;;;18.10;98.80;;;;;;5087733;28;20027;-71
2022/07/16 01:37:05;;;;;;;4.78;3.35;;;18.20;99.00;;;;;;5085089;28;20468;-69
2022/07/16 01:39:34;;;;;;;6.35;3.50;;;18.10;99.30;;;;;;5080686;28;20036;-70
2022/07/16 01:42:03;;;;;;;3.55;2.83;;;18.20;99.30;;;;;;5083382;28;20030;-71
2022/07/16 01:44:30;;;;;;;6.00;3.20;;;18.10;99.40;;;;;;5080658;28;20446;-70
2022/07/16 01:46:58;;;;;;;3.47;3.00;;;18.20;99.40;;;;;;5084001;28;20020;-70
2022/07/16 01:49:24;;;;;;;4.38;3.05;;;18.20;99.30;;;;;;5085444;28;20405;-70
2022/07/16 01:51:50;;;;;;;8.75;3.33;;;18.20;99.60;;;;;;5086998;28;20019;-70
2022/07/16 01:54:17;;;;;;;4.43;3.35;;;18.20;99.50;;;;;;5086485;28;20551;-70
2022/07/16 01:56:42;;;;;;;3.28;2.80;;;18.20;99.60;;;;;;5085669;28;20020;-72
2022/07/16 01:59:08;;;;;;;3.33;2.38;;;18.20;99.80;;;;;;5085071;28;20469;-72
2022/07/16 02:01:34;;;;;;;3.47;3.15;;;18.20;99.90;;;;;;5083987;28;20115;-69
2022/07/16 02:03:59;;;;;;;7.07;3.20;;;18.10;99.90;;;;;;5085598;28;20016;-70
2022/07/16 02:06:26;;;;;;;4.30;2.88;;;18.20;99.90;;;;;;5081502;28;20250;-70
2022/07/16 02:08:52;;;;;;;4.10;2.70;;;18.20;99.90;;;;;;5081695;28;20024;-72
2022/07/16 02:11:17;;;;;;;7.05;3.33;;;18.20;99.90;;;;;;5084098;28;20484;-71
2022/07/16 02:13:43;;;;;;;3.47;3.00;;;18.10;99.90;;;;;;5080888;28;20107;-71
2022/07/16 02:16:09;;;;;;;4.20;3.17;;;18.10;99.90;;;;;;5080515;28;20372;-70
2022/07/16 02:18:35;;;;;;;6.22;3.22;;;18.10;99.90;;;;;;5083976;28;20036;-72
2022/07/16 02:21:01;;;;;;;6.50;3.30;;;18.10;99.80;;;;;;5076538;28;20040;-72
2022/07/16 02:23:27;;;;;;;6.60;3.47;;;18.20;99.90;;;;;;5085733;28;20350;-72
2022/07/16 02:25:52;;;;;;;4.20;3.25;;;18.10;99.90;;;;;;5083081;28;20093;-72
2022/07/16 02:28:18;;;;;;;8.45;3.25;;;18.10;99.90;;;;;;5084885;28;20033;-72
2022/07/16 02:30:47;;;;;;;6.45;3.13;;;18.10;99.90;;;;;;5083874;28;20020;-71
2022/07/16 02:33:18;;;;;;;6.35;3.30;;;18.10;99.90;;;;;;5081134;28;20465;-72
2022/07/16 02:35:44;;;;;;;5.97;3.20;;;18.10;99.90;;;;;;5085880;28;20032;-72
2022/07/16 02:38:11;;;;;;;5.38;3.75;;;18.10;99.90;;;;;;5082948;28;20016;-72
2022/07/16 02:40:39;;;;;;;4.63;3.00;;;18.00;99.90;;;;;;5089746;28;20055;-72
2022/07/16 02:43:06;;;;;;;6.45;3.47;;;18.00;99.90;;;;;;5085190;28;20079;-72
2022/07/16 02:45:34;;;;;;;6.38;3.33;;;18.00;99.90;;;;;;5083796;28;20021;-72
2022/07/16 02:48:00;;;;;;;6.90;3.85;;;18.00;99.90;;;;;;5088457;28;20043;-72
2022/07/16 02:50:26;;;;;;;6.63;3.80;;;18.00;99.90;;;;;;5086360;28;20449;-72
2022/07/16 02:52:52;;;;;;;7.38;4.05;;;18.00;99.90;;;;;;5088086;28;20024;-71
2022/07/16 02:55:18;;;;;;;6.65;4.35;;;18.00;99.90;;;;;;5088539;28;20429;-71
2022/07/16 02:57:43;;;;;;;5.32;4.30;;;18.00;99.90;;;;;;5091235;28;20610;-71
2022/07/16 03:00:11;;;;;;;8.48;3.55;;;18.00;99.90;;;;;;5093777;28;20032;-72
2022/07/16 03:02:37;;;;;;;5.93;3.70;;;17.90;99.90;;;;;;5088059;28;20024;-72
2022/07/16 03:05:03;;;;;;;10.93;4.22;;;18.00;99.90;;;;;;5087647;28;20116;-71
2022/07/16 03:07:29;;;;;;;5.72;4.35;;;18.00;99.90;;;;;;5082149;28;20365;-72
2022/07/16 03:09:55;;;;;;;3.30;3.00;;;18.00;99.90;;;;;;5083385;28;20461;-72
2022/07/16 03:12:20;;;;;;;5.97;4.35;;;17.90;99.90;;;;;;5084014;28;20115;-72
2022/07/16 03:14:46;;;;;;;7.10;4.45;;;17.90;99.90;;;;;;5086022;28;20052;-71
2022/07/16 03:17:12;;;;;;;7.78;3.60;;;17.90;99.90;;;;;;5092554;28;20035;-71
2022/07/16 03:19:39;;;;;;;5.45;3.95;;;17.90;99.90;;;;;;5087018;28;20047;-72
2022/07/16 03:22:05;;;;;;;7.38;3.92;;;17.90;99.90;;;;;;5089403;28;20115;-71
2022/07/16 03:24:30;;;;;;;4.53;3.70;;;17.90;99.90;;;;;;5090389;28;20028;-71
2022/07/16 03:26:56;;;;;;;6.32;3.70;;;17.90;99.90;;;;;;5087923;28;20029;-72
2022/07/16 03:29:22;;;;;;;5.03;3.65;;;17.90;99.90;;;;;;5082230;28;20032;-72
2022/07/16 03:31:47;;;;;;;3.88;3.47;;;17.90;99.90;;;;;;5084916;28;20035;-71
2022/07/16 03:34:13;;;;;;;4.60;2.92;;;17.90;99.90;;;;;;5085807;28;20025;-71
2022/07/16 03:36:39;;;;;;;8.93;2.97;;;17.90;99.90;;;;;;5077055;28;20059;-70
2022/07/16 03:39:04;;;;;;;5.13;3.20;;;17.80;99.90;;;;;;5082010;28;20482;-71
2022/07/16 03:41:35;;;;;;;6.97;3.20;;;17.90;99.90;;;;;;5083945;28;20033;-71
2022/07/16 03:44:03;;;;;;;6.72;2.97;;;17.90;99.90;;;;;;5083910;28;20480;-72
2022/07/16 03:46:29;;;;;;;7.80;3.47;;;17.90;99.90;;;;;;5084172;28;20028;-71
2022/07/16 03:48:55;;;;;;;6.97;3.30;;;17.90;99.90;;;;;;5082448;28;20027;-71
2022/07/16 03:51:20;;;;;;;6.07;2.92;;;17.90;99.90;;;;;;5083179;28;20055;-71
2022/07/16 03:53:46;;;;;;;5.28;3.08;;;17.80;99.90;;;;;;5090675;28;20473;-71
2022/07/16 03:56:12;;;;;;;4.03;3.20;;;17.80;99.90;;;;;;5086381;28;20440;-71
2022/07/16 03:58:37;;;;;;;4.50;2.90;;;17.80;99.90;;;;;;5088268;28;20078;-71
2022/07/16 04:01:03;;;;;;;3.30;3.03;;;17.90;99.90;;;;;;5086682;28;20036;-71
2022/07/16 04:03:29;;;;;;;6.03;3.20;;;17.90;99.90;;;;;;5082674;28;20494;-71
2022/07/16 04:05:54;;;;;;;7.05;3.28;;;17.90;99.90;;;;;;5090399;28;20380;-71
2022/07/16 04:08:20;;;;;;;3.97;3.22;;;17.90;99.90;;;;;;5080220;28;20103;-71
2022/07/16 04:10:46;;;;;;;5.38;3.00;;;17.90;99.90;;;;;;5084852;28;20495;-69
2022/07/16 04:13:11;;;;;;;4.63;3.45;;;18.00;99.90;;;;;;5084595;28;20035;-70
2022/07/16 04:15:37;;;;;;;6.45;3.60;;;18.00;99.90;;;;;;5083411;28;20028;-72
2022/07/16 04:18:03;;;;;;;10.35;3.25;;;18.00;99.90;;;;;;5084535;28;20028;-72
2022/07/16 04:20:28;;;;;;;7.53;3.15;;;18.00;99.90;;;;;;5085480;28;20029;-71
2022/07/16 04:22:54;;;;;;;5.15;3.10;;;18.00;99.90;;;;;;5081225;28;20016;-72
2022/07/16 04:25:20;;;;;;;5.20;2.80;;;18.10;99.90;;;;;;5078639;28;20473;-72
2022/07/16 04:27:47;;;;;;;7.10;3.08;;;18.00;99.90;;;;;;5087621;28;20106;-71
2022/07/16 04:30:13;;;;;;;6.03;3.53;;;18.00;99.90;;;;;;5086954;28;20028;-72
2022/07/16 04:32:40;;;;;;;4.45;3.45;;;18.10;99.90;;;;;;5085467;28;20100;-71
2022/07/16 04:35:07;;;;;;;7.53;4.03;;;18.10;99.90;;;;;;5083038;28;20031;-71
2022/07/16 04:37:33;;;;;;;6.80;3.90;;;18.10;99.90;;;;;;5085946;28;20099;-72
2022/07/16 04:39:58;;;;;;;6.47;3.60;;;18.10;99.90;;;;;;5085504;28;20094;-72
2022/07/16 04:42:24;;;;;;;7.05;3.53;;;18.20;99.90;;;;;;5079338;28;20024;-72
2022/07/16 04:44:50;;;;;;;8.93;4.45;;;18.20;99.90;;;;;;5084343;28;20028;-71
2022/07/16 04:47:15;;;;;;;5.70;4.15;;;18.20;99.90;;;;;;5079295;28;20021;-72
2022/07/16 04:49:41;;;;;;;6.65;3.45;;;18.30;99.90;;;;;;5082294;28;20472;-71
2022/07/16 04:52:07;;;;;;;6.28;3.90;;;18.30;99.90;;;;;;5084840;28;20020;-71
2022/07/16 04:54:33;;;;;;;8.85;4.30;;;18.30;99.90;;;;;;5086260;28;20036;-72
2022/07/16 04:56:58;;;;;;;6.50;4.60;;;18.30;99.90;;;;;;5080260;28;20036;-72
2022/07/16 04:59:24;;;;;;;9.27;4.30;;;18.40;99.90;;;;;;5087474;28;20073;-73
2022/07/16 05:01:50;;;;;;;5.90;3.65;;;18.40;99.90;;;;;;5082418;28;20024;-70
2022/07/16 05:04:16;;;;;;;8.00;4.55;;;18.40;99.90;;;;;;5091376;28;20097;-72
2022/07/16 05:06:42;;;;;;;7.22;5.03;;;18.40;99.90;;;;;;5088315;28;20024;-71
2022/07/16 05:09:07;;;;;;;9.10;5.43;;;18.50;99.90;;;;;;5084398;28;20021;-72
2022/07/16 05:11:33;;;;;;;7.10;4.63;;;18.60;99.90;;;;;;5086537;28;20031;-72
2022/07/16 05:13:59;;;;;;;8.45;5.10;;;18.60;99.90;;;;;;5085497;28;20065;-72
2022/07/16 05:16:24;;;;;;;9.95;5.55;;;18.60;99.90;;;;;;5084747;28;20024;-72
2022/07/16 05:18:51;;;;;;;7.22;5.00;;;18.60;99.90;;;;;;5087037;28;20224;-72
2022/07/16 05:21:17;;;;;;;8.20;4.70;;;18.60;99.90;;;;;;5084835;28;20601;-72
2022/07/16 05:23:42;;;;;;;8.98;5.03;;;18.60;99.90;;;;;;5087292;28;20012;-72
2022/07/16 05:26:09;;;;;;;8.45;5.47;;;18.70;99.90;;;;;;5084525;28;20043;-71
2022/07/16 05:28:34;;;;;;;10.65;6.03;;;18.70;99.90;;;;;;5087343;28;20472;-72
2022/07/16 05:31:00;;;;;;;10.63;5.60;;;18.70;99.90;;;;;;5121218;27;20035;-72
2022/07/16 05:33:26;;;;;;;7.85;5.40;;;18.80;99.90;;;;;;5085105;28;20032;-72
2022/07/16 05:35:51;;;;;;;6.95;4.85;;;18.80;99.90;;;;;;5090168;28;20047;-72
2022/07/16 05:38:17;;;;;;;7.28;5.72;;;18.90;99.90;;;;;;5085851;28;20046;-72
2022/07/16 05:40:43;;;;;;;8.48;5.25;;;18.90;99.90;;;;;;5089224;28;20032;-72
2022/07/16 05:43:09;;;;;;;8.02;5.20;;;18.90;99.90;;;;;;5078601;28;20024;-71
2022/07/16 05:45:35;;;;;;;13.80;6.20;;;18.90;99.90;;;;;;5076902;28;20034;-72
2022/07/16 05:48:00;;;;;;;9.10;5.82;;;19.00;99.90;;;;;;5082792;28;20016;-72
2022/07/16 05:50:26;;;;;;;10.80;6.80;;;19.00;99.90;;;;;;5082379;28;20032;-70
2022/07/16 05:52:52;;;;;;;8.85;6.82;;;19.00;99.90;;;;;;5085156;28;20469;-71
2022/07/16 05:55:18;;;;;;;11.15;6.90;;;19.00;99.90;;;;;;5083236;28;20028;-72
2022/07/16 05:57:43;;;;;;;11.93;5.85;;;18.90;99.90;;;;;;5082596;28;20028;-72
2022/07/16 06:00:10;;;;;;;10.80;7.07;;;19.00;99.90;;;;;;5080961;28;20526;-71
2022/07/16 06:02:37;;;;;;;9.20;5.82;;;19.00;99.90;;;;;;5084297;28;20358;-72
2022/07/16 06:05:03;;;;;;;8.15;5.90;;;19.10;99.90;;;;;;5081870;28;20504;-72
2022/07/16 06:07:29;;;;;;;7.75;5.68;;;19.20;99.90;;;;;;5086015;28;20024;-72
2022/07/16 06:09:54;;;;;;;9.07;5.43;;;19.10;99.90;;;;;;5078001;28;20430;-72
2022/07/16 06:12:20;;;;;;;6.50;5.10;;;19.10;99.90;;;;;;5082277;28;20029;-72
2022/07/16 06:14:46;;;;;;;8.13;4.78;;;19.10;99.90;;;;;;5075017;28;20016;-72
2022/07/16 06:17:13;;;;;;;7.57;5.28;;;19.10;99.90;;;;;;5086841;28;20021;-71
2022/07/16 06:19:42;;;;;;;9.73;5.72;;;19.20;99.90;;;;;;5079775;28;20027;-72
2022/07/16 06:22:08;;;;;;;9.98;4.70;;;19.30;99.90;;;;;;5073334;28;20564;-70
2022/07/16 06:24:34;;;;;;;13.02;4.82;;;19.30;99.90;;;;;;5080321;28;20028;-72
2022/07/16 06:27:00;;;;;;;7.80;4.95;;;19.30;99.90;;;;;;5079075;28;20543;-72
2022/07/16 06:29:26;;;;;;;6.75;5.43;;;19.30;99.90;;;;;;5081013;28;20115;-73
2022/07/16 06:31:52;;;;;;;7.20;4.72;;;19.30;99.90;;;;;;5080005;28;20039;-70
2022/07/16 06:34:17;;;;;;;7.35;4.68;;;19.30;99.90;;;;;;5084244;28;20115;-72
2022/07/16 06:36:43;;;;;;;10.30;4.95;;;19.40;99.90;;;;;;5079589;28;20031;-72
2022/07/16 06:39:09;;;;;;;7.95;4.78;;;19.40;99.90;;;;;;5085277;28;20016;-72
2022/07/16 06:41:38;;;;;;;6.95;3.92;;;19.50;99.90;;;;;;5085207;28;20035;-72
2022/07/16 06:44:05;;;;;;;11.43;4.38;;;19.60;99.90;;;;;;5080780;28;20413;-72
2022/07/16 06:46:30;;;;;;;5.63;3.10;;;19.60;99.90;;;;;;5086741;28;20027;-72
2022/07/16 06:48:56;;;;;;;6.70;3.15;;;19.70;99.90;;;;;;5082913;28;20020;-72
2022/07/16 06:51:21;;;;;;;4.60;2.88;;;19.80;99.90;;;;;;5081533;28;20469;-71
2022/07/16 06:53:47;;;;;;;5.15;2.60;;;19.90;99.90;;;;;;5078628;28;20027;-72
2022/07/16 06:56:13;;;;;;;6.93;2.95;;;20.00;99.90;;;;;;5086611;28;20476;-72
2022/07/16 06:58:39;;;;;;;4.68;2.97;;;20.00;99.90;;;;;;5083659;28;20035;-72
2022/07/16 07:01:05;;;;;;;7.05;3.08;;;20.10;99.90;;;;;;5078419;28;20024;-73
2022/07/16 07:03:31;;;;;;;6.25;2.67;;;20.10;99.90;;;;;;5084218;28;20035;-73
2022/07/16 07:05:57;;;;;;;3.30;2.50;;;20.10;99.90;;;;;;5084208;28;20020;-72
2022/07/16 07:08:22;;;;;;;4.95;2.20;;;20.10;99.90;;;;;;5079086;28;20695;-73
2022/07/16 07:10:48;;;;;;;4.38;2.63;;;20.20;99.90;;;;;;5083601;28;20062;-73
2022/07/16 07:13:14;;;;;;;13.73;2.65;;;20.20;99.90;;;;;;5083239;28;20017;-72
2022/07/16 07:15:41;;;;;;;8.07;2.50;;;20.30;99.90;;;;;;5082070;28;20066;-72
2022/07/16 07:18:07;;;;;;;8.02;2.40;;;20.50;99.90;;;;;;5085609;28;20027;-73
2022/07/16 07:20:33;;;;;;;5.10;2.15;;;20.70;99.90;;;;;;5083647;28;20476;-73
2022/07/16 07:22:58;;;;;;;4.85;1.52;;;21.00;99.90;;;;;;5082559;28;20492;-73
2022/07/16 07:25:24;;;;;;;2.28;1.30;;;21.30;99.90;;;;;;5080581;28;20565;-72
2022/07/16 07:27:50;;;;;;;5.07;1.40;;;21.20;99.90;;;;;;5080249;28;20028;-72
2022/07/16 07:30:15;;;;;;;1.95;1.42;;;21.10;99.90;;;;;;5087620;28;20032;-72
2022/07/16 07:32:41;;;;;;;4.00;1.30;;;21.00;99.90;;;;;;5085416;28;20020;-71
2022/07/16 07:35:07;;;;;;;2.10;1.10;;;20.90;99.90;;;;;;5084039;28;20389;-73
2022/07/16 07:37:33;;;;;;;4.10;1.48;;;21.00;99.90;;;;;;5090392;28;20023;-72
2022/07/16 07:39:59;;;;;;;2.63;1.48;;;21.00;99.90;;;;;;5090504;28;20492;-72
2022/07/16 07:42:25;;;;;;;2.15;1.00;;;21.20;99.90;;;;;;5087866;28;20151;-72
2022/07/16 07:44:50;;;;;;;3.33;1.10;;;21.40;99.90;;;;;;5086199;28;20024;-72
2022/07/16 07:47:16;;;;;;;3.42;1.25;;;21.50;99.90;;;;;;5090274;28;20044;-72
2022/07/16 07:49:42;;;;;;;4.05;1.55;;;21.50;99.90;;;;;;5089068;28;20107;-72
2022/07/16 07:52:08;;;;;;;3.90;1.40;;;21.60;99.90;;;;;;5088548;28;20031;-72
2022/07/16 07:54:34;;;;;;;3.38;1.30;;;21.70;99.90;;;;;;5089458;28;20028;-72
2022/07/16 07:57:00;;;;;;;1.73;1.00;;;21.70;99.90;;;;;;5088539;28;20075;-69
2022/07/16 07:59:26;;;;;;;2.05;1.00;;;21.70;99.90;;;;;;5075987;28;20056;-73
2022/07/16 08:01:53;;;;;;;2.47;1.15;;;21.60;99.90;;;;;;5085185;28;20481;-73
2022/07/16 08:04:18;;;;;;;3.13;1.10;;;21.40;99.90;;;;;;5084372;28;20016;-74
2022/07/16 08:06:44;;;;;;;3.33;1.40;;;21.40;99.90;;;;;;5083630;28;20036;-74
2022/07/16 08:09:10;;;;;;;2.60;1.17;;;21.40;99.90;;;;;;5085306;28;20020;-74
2022/07/16 08:11:35;;;;;;;1.85;1.15;;;21.40;99.90;;;;;;5086599;28;20381;-74
2022/07/16 08:14:01;;;;;;;3.08;1.00;;;21.60;99.90;;;;;;5085351;28;20483;-74
2022/07/16 08:16:27;;;;;;;4.03;1.27;;;21.70;99.90;;;;;;5088707;28;20495;-74
2022/07/16 08:18:52;;;;;;;3.95;0.82;;;21.90;99.90;;;;;;5082584;28;20099;-73
2022/07/16 08:21:18;;;;;;;3.63;0.90;;;22.00;99.90;;;;;;5085464;28;20044;-75
2022/07/16 08:26:28;;;;;;;2.55;1.40;;;22.20;99.90;;;;;;5084716;28;20086;-74
2022/07/16 08:28:54;;;;;;;1.73;0.93;;;22.40;99.90;;;;;;5081983;28;20040;-74
2022/07/16 08:31:19;;;;;;;1.65;0.95;;;22.50;99.80;;;;;;5088695;28;20022;-74
2022/07/16 08:33:45;;;;;;;1.40;1.17;;;22.80;99.90;;;;;;5085814;28;20013;-74
2022/07/16 08:36:11;;;;;;;4.45;1.35;;;22.70;99.90;;;;;;5084116;28;20466;-74
2022/07/16 08:38:36;;;;;;;24.95;2.10;;;22.60;99.90;;;;;;5089674;28;20366;-74
2022/07/16 08:41:02;;;;;;;1.23;1.13;;;22.70;99.80;;;;;;5081453;28;20033;-74
2022/07/16 08:43:30;;;;;;;2.13;1.05;;;22.70;99.40;;;;;;5081683;28;20066;-75
2022/07/16 08:45:56;;;;;;;3.35;1.10;;;22.80;98.50;;;;;;5080870;28;20020;-74
2022/07/16 08:48:24;;;;;;;2.63;1.00;;;23.00;98.60;;;;;;5091352;28;20020;-74
2022/07/16 08:50:52;;;;;;;5.88;0.90;;;23.00;97.80;;;;;;5084095;28;20024;-73
2022/07/16 08:53:22;;;;;;;3.33;1.13;;;23.10;98.60;;;;;;5087239;28;20024;-73
2022/07/16 08:55:51;;;;;;;1.00;0.80;;;23.40;98.30;;;;;;5084297;28;20028;-73
2022/07/16 08:58:17;;;;;;;1.65;0.90;;;23.50;97.20;;;;;;5086040;28;20113;-73
2022/07/16 09:00:42;;;;;;;1.42;0.90;;;23.70;97.00;;;;;;5084243;28;20484;-73
2022/07/16 09:03:12;;;;;;;1.27;0.80;;;23.80;96.20;;;;;;5085201;28;20021;-72
2022/07/16 09:05:38;;;;;;;2.78;0.88;;;23.90;96.10;;;;;;5084643;28;20074;-73
2022/07/16 09:08:04;;;;;;;1.33;0.73;;;23.90;95.90;;;;;;5088753;28;20111;-73
2022/07/16 09:10:38;;;;;;;1.30;0.80;;;23.90;96.10;;;;;;5085290;28;20115;-73
2022/07/16 09:13:05;;;;;;;3.17;1.05;;;23.70;95.30;;;;;;5082517;28;20115;-73
2022/07/16 09:15:37;;;;;;;1.92;1.08;;;23.90;97.10;;;;;;5082851;28;20044;-73
2022/07/16 09:18:21;;;;;;;2.50;0.98;;;24.10;96.40;;;;;;5085037;28;20053;-73
2022/07/16 09:20:54;;;;;;;2.20;0.98;;;24.40;96.10;;;;;;5081786;28;20042;-73
2022/07/16 09:23:35;;;;;;;3.45;1.17;;;24.20;95.30;;;;;;5087156;28;20040;-73
2022/07/16 09:26:05;;;;;;;2.00;1.20;;;23.90;95.30;;;;;;5086011;28;20458;-73
2022/07/16 09:28:47;;;;;;;4.63;1.27;;;23.90;95.60;;;;;;5084780;28;20476;-73
2022/07/16 09:31:31;;;;;;;4.88;1.10;;;24.10;94.50;;;;;;5089500;28;20013;-73
2022/07/16 09:34:03;;;;;;;1.83;0.90;;;24.30;95.00;;;;;;5082010;28;20020;-73
2022/07/16 09:36:29;;;;;;;1.48;1.25;;;24.60;94.50;;;;;;5082752;28;20464;-73
2022/07/16 09:38:55;;;;;;;2.38;1.17;;;24.90;95.00;;;;;;5083910;28;20111;-73
2022/07/16 09:41:21;;;;;;;3.75;1.20;;;25.10;93.50;;;;;;5085869;28;20485;-73
2022/07/16 09:43:48;;;;;;;2.72;0.90;;;25.40;93.50;;;;;;5083323;28;20476;-73
2022/07/16 09:46:22;;;;;;;1.10;0.90;;;25.40;93.60;;;;;;5086634;28;20110;-72
2022/07/16 09:48:49;;;;;;;1.65;1.02;;;25.20;93.00;;;;;;5081248;28;20427;-72
2022/07/16 09:51:22;;;;;;;1.10;0.80;;;24.80;93.00;;;;;;5082756;28;20066;-73
2022/07/16 09:53:50;;;;;;;2.83;1.30;;;24.90;93.60;;;;;;5083058;28;20032;-72
2022/07/16 09:56:18;;;;;;;2.38;1.42;;;25.10;93.30;;;;;;5085688;28;20025;-69
2022/07/16 09:58:51;;;;;;;1.67;1.00;;;25.20;92.70;;;;;;5086479;28;20028;-72
2022/07/16 10:01:18;;;;;;;3.42;1.00;;;25.40;92.50;;;;;;5090983;28;20032;-72
2022/07/16 10:03:45;;;;;;;2.30;0.93;;;25.40;90.40;;;;;;5110394;27;20031;-71
2022/07/16 10:06:11;;;;;;;4.28;1.15;;;25.50;91.40;;;;;;5085825;28;20473;-72
2022/07/16 10:08:38;;;;;;;3.13;1.00;;;25.70;91.70;;;;;;5082494;28;20016;-71
2022/07/16 10:11:04;;;;;;;2.38;1.25;;;25.80;91.70;;;;;;5091143;28;20186;-73
2022/07/16 10:13:32;;;;;;;3.97;0.98;;;25.90;91.30;;;;;;5078522;28;20020;-72
2022/07/16 10:15:58;;;;;;;1.40;0.93;;;26.20;90.90;;;;;;5084815;28;20016;-71
2022/07/16 10:18:37;;;;;;;2.42;1.05;;;26.40;91.10;;;;;;5084414;28;20114;-71
2022/07/16 10:21:15;;;;;;;2.22;1.10;;;26.40;90.90;;;;;;5084726;28;20028;-70
2022/07/16 10:23:43;;;;;;;3.83;0.90;;;26.50;90.70;;;;;;5079828;28;20161;-72
2022/07/16 10:26:16;;;;;;;4.40;1.00;;;26.60;90.70;;;;;;5085258;28;20024;-72
2022/07/16 10:28:47;;;;;;;2.15;0.98;;;26.70;90.60;;;;;;5078805;28;20115;-72
2022/07/16 10:34:40;;;;;;;2.38;0.90;;;26.70;88.00;;;;;;5051961;28;20387;-73
2022/07/16 10:37:09;;;;;;;1.77;0.85;;;26.90;90.20;;;;;;5083774;28;20020;-70
2022/07/16 10:40:08;;;;;;;2.72;0.90;;;26.90;89.10;;;;;;5086456;28;20469;-72
2022/07/16 10:42:34;;;;;;;2.40;0.80;;;26.40;88.10;;;;;;5076623;28;20472;-71
2022/07/16 10:45:00;;;;;;;1.48;1.00;;;26.20;90.20;;;;;;5083862;28;20043;-73
2022/07/16 10:47:44;;;;;;;2.30;0.85;;;26.40;90.30;;;;;;5087529;28;20066;-73
2022/07/16 10:50:21;;;;;;;2.33;0.90;;;26.80;90.30;;;;;;5086046;28;20032;-75
2022/07/16 10:52:48;;;;;;;2.90;0.82;;;26.90;88.60;;;;;;5078364;28;20091;-75
2022/07/16 10:55:40;;;;;;;1.45;0.80;;;27.00;88.00;;;;;;5082863;28;20032;-73
2022/07/16 10:58:07;;;;;;;4.25;1.02;;;27.10;88.50;;;;;;5086597;28;20020;-75
2022/07/16 11:00:33;;;;;;;10.00;1.38;;;27.20;90.70;;;;;;5082062;28;20456;-74
2022/07/16 11:03:01;;;;;;;2.92;1.00;;;26.60;86.00;;;;;;5078730;28;20100;-74
2022/07/16 11:05:29;;;;;;;2.55;1.00;;;26.50;88.50;;;;;;5084759;28;20035;-74
2022/07/16 11:08:05;;;;;;;1.58;0.80;;;26.70;87.80;;;;;;5087625;28;20024;-73
2022/07/16 11:10:31;;;;;;;1.48;0.80;;;26.50;85.90;;;;;;5088248;28;20024;-74
2022/07/16 11:12:57;;;;;;;1.65;0.90;;;26.60;88.40;;;;;;5084906;28;20020;-74
2022/07/16 11:15:22;;;;;;;3.10;0.93;;;26.50;85.30;;;;;;5087366;28;20021;-72
2022/07/16 11:17:55;;;;;;;1.73;0.80;;;26.50;85.50;;;;;;5091679;28;20115;-73
2022/07/16 11:20:34;;;;;;;1.38;0.90;;;26.70;90.00;;;;;;5086885;28;20035;-73
2022/07/16 11:23:08;;;;;;;2.53;0.98;;;27.10;87.40;;;;;;5085664;28;20034;-74
2022/07/16 11:25:33;;;;;;;2.10;1.13;;;27.50;84.60;;;;;;5084602;28;20104;-72
2022/07/16 11:28:02;;;;;;;1.95;0.98;;;27.50;86.80;;;;;;5080920;28;20103;-74
2022/07/16 11:30:29;;;;;;;2.75;1.17;;;27.30;86.00;;;;;;5116883;27;20051;-72
2022/07/16 11:32:54;;;;;;;4.63;1.08;;;26.80;85.40;;;;;;5085230;28;20073;-73
2022/07/16 11:35:20;;;;;;;2.90;0.90;;;26.30;88.50;;;;;;5085624;28;20032;-71
2022/07/16 11:37:53;;;;;;;3.20;1.20;;;26.60;87.80;;;;;;5078757;28;20024;-74
2022/07/16 11:40:19;;;;;;;4.00;0.70;;;27.20;86.00;;;;;;5089527;28;20448;-75
2022/07/16 11:42:57;;;;;;;1.73;0.80;;;27.40;86.20;;;;;;5084905;28;20095;-73
2022/07/16 11:45:23;;;;;;;0.82;0.80;;;27.10;85.30;;;;;;5088876;28;20037;-73
2022/07/16 11:48:08;;;;;;;2.40;0.90;;;27.20;85.30;;;;;;5084127;28;20016;-75
2022/07/16 11:50:34;;;;;;;1.55;0.90;;;27.00;84.20;;;;;;5089042;28;20028;-74
2022/07/16 11:52:59;;;;;;;1.58;0.90;;;26.50;86.80;;;;;;5077099;28;20038;-73
2022/07/16 11:55:25;;;;;;;3.38;1.20;;;26.30;87.50;;;;;;5082092;28;20051;-74
2022/07/16 11:57:51;;;;;;;1.58;0.88;;;26.00;87.20;;;;;;5086419;28;20063;-73
2022/07/16 12:00:16;;;;;;;3.92;1.20;;;26.10;88.20;;;;;;5085168;28;20032;-73
2022/07/16 12:02:45;;;;;;;2.95;0.95;;;26.40;88.00;;;;;;5086468;28;20028;-74
2022/07/16 12:05:11;;;;;;;2.33;1.10;;;26.80;87.20;;;;;;5083016;28;20215;-73
2022/07/16 12:07:36;;;;;;;4.40;1.33;;;27.10;89.60;;;;;;5085516;28;20012;-74
2022/07/16 12:10:06;;;;;;;3.85;1.25;;;27.40;86.50;;;;;;5083734;28;20560;-74
2022/07/16 12:12:35;;;;;;;2.97;1.13;;;27.60;85.90;;;;;;5085808;28;20040;-74
2022/07/16 12:15:12;;;;;;;3.20;1.20;;;27.30;86.00;;;;;;5078701;28;20025;-74
2022/07/16 12:17:48;;;;;;;1.70;1.00;;;26.80;85.10;;;;;;5086108;28;20024;-72
2022/07/16 12:20:19;;;;;;;4.40;1.52;;;26.60;86.30;;;;;;5088830;28;20032;-73
2022/07/16 12:22:50;;;;;;;3.63;1.42;;;27.00;86.20;;;;;;5088662;28;20098;-74
2022/07/16 12:25:27;;;;;;;2.28;1.17;;;27.40;86.80;;;;;;5080351;28;20031;-73
2022/07/16 12:28:02;;;;;;;2.58;1.17;;;27.20;83.20;;;;;;5084179;28;20101;-72
2022/07/16 12:30:39;;;;;;;3.08;1.15;;;26.80;82.80;;;;;;5086108;28;20396;-72
2022/07/16 12:33:29;;;;;;;1.95;0.98;;;26.50;81.60;;;;;;5085086;28;20031;-72
2022/07/16 12:36:02;;;;;;;5.32;1.13;;;26.60;83.90;;;;;;5078088;28;20025;-73
2022/07/16 12:38:39;;;;;;;;;;;26.80;83.10;;;;;;5096712;28;20033;-71
2022/07/16 12:41:12;;;;;;;1.27;0.98;;;27.20;85.60;;;;;;5084908;28;19917;-73
2022/07/16 12:43:42;;;;;;;3.60;1.08;;;27.30;84.00;;;;;;5083782;28;20013;-72
2022/07/16 12:46:08;;;;;;;1.90;0.90;;;27.00;82.50;;;;;;5081955;28;20098;-72
2022/07/16 12:48:45;;;;;;;3.10;1.17;;;26.70;83.00;;;;;;5092407;28;20020;-73
2022/07/16 12:51:14;;;;;;;2.60;1.00;;;26.60;82.70;;;;;;5086555;28;20481;-73
2022/07/16 12:53:40;;;;;;;2.65;1.10;;;26.70;82.70;;;;;;5086272;28;20035;-72
2022/07/16 12:58:50;;;;;;;1.80;0.70;;;27.40;84.40;;;;;;5077639;28;20079;-74